sensor_id;sensor_type;location;lat;lon;timestamp;temperature;humidity
7411;DHT22;3747;48.628;9.058;2023-01-24T00:00:03;0.60;99.90
7411;DHT22;3747;48.628;9.058;2023-01-24T00:02:30;0.60;99.90
7411;DHT22;3747;48.628;9.058;2023-01-24T00:04:57;0.60;99.90
7411;DHT22;3747;48.628;9.058;2023-01-24T00:07:23;0.60;99.90
7411;DHT22;3747;48.628;9.058;2023-01-24T00:09:51;0.60;99.90
7411;DHT22;3747;48.628;9.058;2023-01-24T00:12:18;0.60;99.90
7411;DHT22;3747;48.628;9.058;2023-01-24T00:14:45;0.60;99.90
7411;DHT22;3747;48.628;9.058;2023-01-24T00:17:11;0.60;99.90
7411;DHT22;3747;48.628;9.058;2023-01-24T00:19:38;0.60;99.90
7411;DHT22;3747;48.628;9.058;2023-01-24T00:22:05;0.60;99.90
7411;DHT22;3747;48.628;9.058;2023-01-24T00:24:32;0.60;99.90
7411;DHT22;3747;48.628;9.058;2023-01-24T00:27:01;0.60;99.90
7411;DHT22;3747;48.628;9.058;2023-01-24T00:29:28;0.60;99.90
7411;DHT22;3747;48.628;9.058;2023-01-24T00:31:55;0.60;99.90
7411;DHT22;3747;48.628;9.058;2023-01-24T00:34:21;0.60;99.90
7411;DHT22;3747;48.628;9.058;2023-01-24T00:36:48;0.70;99.90
7411;DHT22;3747;48.628;9.058;2023-01-24T00:39:15;0.70;99.90
7411;DHT22;3747;48.628;9.058;2023-01-24T00:41:41;0.60;99.90
7411;DHT22;3747;48.628;9.058;2023-01-24T00:44:09;0.70;99.90
7411;DHT22;3747;48.628;9.058;2023-01-24T00:46:36;0.70;99.90
7411;DHT22;3747;48.628;9.058;2023-01-24T00:49:03;0.70;99.90
7411;DHT22;3747;48.628;9.058;2023-01-24T00:51:30;0.60;99.90
7411;DHT22;3747;48.628;9.058;2023-01-24T00:53:56;0.60;99.90
7411;DHT22;3747;48.628;9.058;2023-01-24T00:56:23;0.60;99.90
7411;DHT22;3747;48.628;9.058;2023-01-24T00:58:50;0.60;99.90
7411;DHT22;3747;48.628;9.058;2023-01-24T01:01:19;0.60;99.90
7411;DHT22;3747;48.628;9.058;2023-01-24T01:03:46;0.60;99.90
7411;DHT22;3747;48.628;9.058;2023-01-24T01:06:14;0.60;99.90
7411;DHT22;3747;48.628;9.058;2023-01-24T01:08:41;0.60;99.90
7411;DHT22;3747;48.628;9.058;2023-01-24T01:11:08;0.70;99.90
7411;DHT22;3747;48.628;9.058;2023-01-24T01:13:35;0.70;99.90
7411;DHT22;3747;48.628;9.058;2023-01-24T01:16:03;0.70;99.90
7411;DHT22;3747;48.628;9.058;2023-01-24T01:18:31;0.70;99.90
7411;DHT22;3747;48.628;9.058;2023-01-24T01:20:58;0.70;99.90
7411;DHT22;3747;48.628;9.058;2023-01-24T01:23:25;0.60;99.90
7411;DHT22;3747;48.628;9.058;2023-01-24T01:25:51;0.70;99.90
7411;DHT22;3747;48.628;9.058;2023-01-24T01:28:18;0.60;99.90
7411;DHT22;3747;48.628;9.058;2023-01-24T01:30:49;0.60;99.90
7411;DHT22;3747;48.628;9.058;2023-01-24T01:33:17;0.60;99.90
7411;DHT22;3747;48.628;9.058;2023-01-24T01:35:46;0.60;99.90
7411;DHT22;3747;48.628;9.058;2023-01-24T01:38:12;0.60;99.90
7411;DHT22;3747;48.628;9.058;2023-01-24T01:40:39;0.60;99.90
7411;DHT22;3747;48.628;9.058;2023-01-24T01:43:11;0.70;99.90
7411;DHT22;3747;48.628;9.058;2023-01-24T01:45:41;0.70;99.90
7411;DHT22;3747;48.628;9.058;2023-01-24T01:48:15;0.60;99.90
7411;DHT22;3747;48.628;9.058;2023-01-24T01:50:48;0.60;99.90
7411;DHT22;3747;48.628;9.058;2023-01-24T01:53:17;0.60;99.90
7411;DHT22;3747;48.628;9.058;2023-01-24T01:55:47;0.60;99.90
7411;DHT22;3747;48.628;9.058;2023-01-24T01:58:15;0.70;99.90
7411;DHT22;3747;48.628;9.058;2023-01-24T02:00:43;0.70;99.90
7411;DHT22;3747;48.628;9.058;2023-01-24T02:03:19;0.70;99.90
7411;DHT22;3747;48.628;9.058;2023-01-24T02:06:21;0.70;99.90
7411;DHT22;3747;48.628;9.058;2023-01-24T02:08:50;0.70;99.90
7411;DHT22;3747;48.628;9.058;2023-01-24T02:11:17;0.60;99.90
7411;DHT22;3747;48.628;9.058;2023-01-24T02:14:07;0.60;99.90
7411;DHT22;3747;48.628;9.058;2023-01-24T02:16:52;0.60;99.90
7411;DHT22;3747;48.628;9.058;2023-01-24T02:19:27;0.60;99.90
7411;DHT22;3747;48.628;9.058;2023-01-24T02:22:05;0.60;99.90
7411;DHT22;3747;48.628;9.058;2023-01-24T02:24:38;0.60;99.90
7411;DHT22;3747;48.628;9.058;2023-01-24T02:27:07;0.60;99.90
7411;DHT22;3747;48.628;9.058;2023-01-24T02:29:34;0.60;99.90
7411;DHT22;3747;48.628;9.058;2023-01-24T02:32:05;0.60;99.90
7411;DHT22;3747;48.628;9.058;2023-01-24T02:34:32;0.60;99.90
7411;DHT22;3747;48.628;9.058;2023-01-24T02:37:00;0.60;99.90
7411;DHT22;3747;48.628;9.058;2023-01-24T02:39:30;0.60;99.90
7411;DHT22;3747;48.628;9.058;2023-01-24T02:42:01;0.60;99.90
7411;DHT22;3747;48.628;9.058;2023-01-24T02:44:36;0.50;99.90
7411;DHT22;3747;48.628;9.058;2023-01-24T02:47:03;0.50;99.90
7411;DHT22;3747;48.628;9.058;2023-01-24T02:49:30;0.50;99.90
7411;DHT22;3747;48.628;9.058;2023-01-24T02:51:57;0.50;99.90
7411;DHT22;3747;48.628;9.058;2023-01-24T02:54:41;0.50;99.90
7411;DHT22;3747;48.628;9.058;2023-01-24T02:57:08;0.40;99.90
7411;DHT22;3747;48.628;9.058;2023-01-24T02:59:54;0.50;99.90
7411;DHT22;3747;48.628;9.058;2023-01-24T03:02:20;0.40;99.90
7411;DHT22;3747;48.628;9.058;2023-01-24T03:04:47;0.40;99.90
7411;DHT22;3747;48.628;9.058;2023-01-24T03:07:14;0.40;99.90
7411;DHT22;3747;48.628;9.058;2023-01-24T03:09:40;0.40;99.90
7411;DHT22;3747;48.628;9.058;2023-01-24T03:12:12;0.40;99.90
7411;DHT22;3747;48.628;9.058;2023-01-24T03:14:58;0.40;99.90
7411;DHT22;3747;48.628;9.058;2023-01-24T03:17:42;0.40;99.90
7411;DHT22;3747;48.628;9.058;2023-01-24T03:20:27;0.40;99.90
7411;DHT22;3747;48.628;9.058;2023-01-24T03:23:11;0.40;99.90
7411;DHT22;3747;48.628;9.058;2023-01-24T03:25:56;0.40;99.90
7411;DHT22;3747;48.628;9.058;2023-01-24T03:28:41;0.40;99.90
7411;DHT22;3747;48.628;9.058;2023-01-24T03:31:27;0.40;99.90
7411;DHT22;3747;48.628;9.058;2023-01-24T03:34:12;0.40;99.90
7411;DHT22;3747;48.628;9.058;2023-01-24T03:36:58;0.40;99.90
7411;DHT22;3747;48.628;9.058;2023-01-24T03:39:25;0.40;99.90
7411;DHT22;3747;48.628;9.058;2023-01-24T03:42:09;0.40;99.90
7411;DHT22;3747;48.628;9.058;2023-01-24T03:44:36;0.40;99.90
7411;DHT22;3747;48.628;9.058;2023-01-24T03:47:04;0.50;99.90
7411;DHT22;3747;48.628;9.058;2023-01-24T03:49:31;0.50;99.90
7411;DHT22;3747;48.628;9.058;2023-01-24T03:52:15;0.50;99.90
7411;DHT22;3747;48.628;9.058;2023-01-24T03:54:52;0.40;99.90
7411;DHT22;3747;48.628;9.058;2023-01-24T03:57:19;0.40;99.90
7411;DHT22;3747;48.628;9.058;2023-01-24T03:59:45;0.40;99.90
7411;DHT22;3747;48.628;9.058;2023-01-24T04:02:13;0.50;99.90
7411;DHT22;3747;48.628;9.058;2023-01-24T04:04:40;0.40;99.90
7411;DHT22;3747;48.628;9.058;2023-01-24T04:07:24;0.40;99.90
7411;DHT22;3747;48.628;9.058;2023-01-24T04:09:51;0.50;99.90
7411;DHT22;3747;48.628;9.058;2023-01-24T04:12:18;0.50;99.90
7411;DHT22;3747;48.628;9.058;2023-01-24T04:14:44;0.50;99.90
7411;DHT22;3747;48.628;9.058;2023-01-24T04:17:12;0.50;99.90
7411;DHT22;3747;48.628;9.058;2023-01-24T04:19:39;0.40;99.90
7411;DHT22;3747;48.628;9.058;2023-01-24T04:22:06;0.50;99.90
7411;DHT22;3747;48.628;9.058;2023-01-24T04:24:33;0.50;99.90
7411;DHT22;3747;48.628;9.058;2023-01-24T04:26:59;0.50;99.90
7411;DHT22;3747;48.628;9.058;2023-01-24T04:29:26;0.50;99.90
7411;DHT22;3747;48.628;9.058;2023-01-24T04:31:53;0.50;99.90
7411;DHT22;3747;48.628;9.058;2023-01-24T04:34:21;0.50;99.90
7411;DHT22;3747;48.628;9.058;2023-01-24T04:36:47;0.50;99.90
7411;DHT22;3747;48.628;9.058;2023-01-24T04:39:14;0.50;99.90
7411;DHT22;3747;48.628;9.058;2023-01-24T04:41:41;0.50;99.90
7411;DHT22;3747;48.628;9.058;2023-01-24T04:44:08;0.50;99.90
7411;DHT22;3747;48.628;9.058;2023-01-24T04:46:35;0.50;99.90
7411;DHT22;3747;48.628;9.058;2023-01-24T04:49:01;0.50;99.90
7411;DHT22;3747;48.628;9.058;2023-01-24T04:51:29;0.50;99.90
7411;DHT22;3747;48.628;9.058;2023-01-24T04:53:56;0.50;99.90
7411;DHT22;3747;48.628;9.058;2023-01-24T04:56:23;0.50;99.90
7411;DHT22;3747;48.628;9.058;2023-01-24T04:58:49;0.50;99.90
7411;DHT22;3747;48.628;9.058;2023-01-24T05:01:16;0.50;99.90
7411;DHT22;3747;48.628;9.058;2023-01-24T05:03:43;0.50;99.90
7411;DHT22;3747;48.628;9.058;2023-01-24T05:06:09;0.50;99.90
7411;DHT22;3747;48.628;9.058;2023-01-24T05:08:37;0.50;99.90
7411;DHT22;3747;48.628;9.058;2023-01-24T05:11:04;0.50;99.90
7411;DHT22;3747;48.628;9.058;2023-01-24T05:13:31;0.50;99.90
7411;DHT22;3747;48.628;9.058;2023-01-24T05:15:58;0.40;99.90
7411;DHT22;3747;48.628;9.058;2023-01-24T05:18:24;0.40;99.90
7411;DHT22;3747;48.628;9.058;2023-01-24T05:20:51;0.50;99.90
7411;DHT22;3747;48.628;9.058;2023-01-24T05:23:18;0.50;99.90
7411;DHT22;3747;48.628;9.058;2023-01-24T05:25:46;0.50;99.90
7411;DHT22;3747;48.628;9.058;2023-01-24T05:28:12;0.50;99.90
7411;DHT22;3747;48.628;9.058;2023-01-24T05:30:39;0.50;99.90
7411;DHT22;3747;48.628;9.058;2023-01-24T05:33:06;0.50;99.90
7411;DHT22;3747;48.628;9.058;2023-01-24T05:35:32;0.50;99.90
7411;DHT22;3747;48.628;9.058;2023-01-24T05:37:59;0.50;99.90
7411;DHT22;3747;48.628;9.058;2023-01-24T05:40:26;0.50;99.90
7411;DHT22;3747;48.628;9.058;2023-01-24T05:42:54;0.50;99.90
7411;DHT22;3747;48.628;9.058;2023-01-24T05:45:21;0.50;99.90
7411;DHT22;3747;48.628;9.058;2023-01-24T05:47:47;0.50;99.90
7411;DHT22;3747;48.628;9.058;2023-01-24T05:50:15;0.50;99.90
7411;DHT22;3747;48.628;9.058;2023-01-24T05:52:41;0.40;99.90
7411;DHT22;3747;48.628;9.058;2023-01-24T05:55:08;0.40;99.90
7411;DHT22;3747;48.628;9.058;2023-01-24T05:57:35;0.40;99.90
7411;DHT22;3747;48.628;9.058;2023-01-24T06:00:05;0.40;99.90
7411;DHT22;3747;48.628;9.058;2023-01-24T06:02:32;0.40;99.90
7411;DHT22;3747;48.628;9.058;2023-01-24T06:04:58;0.40;99.90
7411;DHT22;3747;48.628;9.058;2023-01-24T06:07:25;0.40;99.90
7411;DHT22;3747;48.628;9.058;2023-01-24T06:09:52;0.40;99.90
7411;DHT22;3747;48.628;9.058;2023-01-24T06:12:18;0.40;99.90
7411;DHT22;3747;48.628;9.058;2023-01-24T06:14:45;0.40;99.90
7411;DHT22;3747;48.628;9.058;2023-01-24T06:17:13;0.50;99.90
7411;DHT22;3747;48.628;9.058;2023-01-24T06:19:40;0.40;99.90
7411;DHT22;3747;48.628;9.058;2023-01-24T06:22:17;0.40;99.90
7411;DHT22;3747;48.628;9.058;2023-01-24T06:24:46;0.50;99.90
7411;DHT22;3747;48.628;9.058;2023-01-24T06:27:13;0.50;99.90
7411;DHT22;3747;48.628;9.058;2023-01-24T06:29:40;0.40;99.90
7411;DHT22;3747;48.628;9.058;2023-01-24T06:32:20;0.40;99.90
7411;DHT22;3747;48.628;9.058;2023-01-24T06:35:10;0.40;99.90
7411;DHT22;3747;48.628;9.058;2023-01-24T06:37:45;0.40;99.90
7411;DHT22;3747;48.628;9.058;2023-01-24T06:40:14;0.40;99.90
7411;DHT22;3747;48.628;9.058;2023-01-24T06:42:41;0.40;99.90
7411;DHT22;3747;48.628;9.058;2023-01-24T06:45:09;0.40;99.90
7411;DHT22;3747;48.628;9.058;2023-01-24T06:47:37;0.40;99.90
7411;DHT22;3747;48.628;9.058;2023-01-24T06:50:05;0.50;99.90
7411;DHT22;3747;48.628;9.058;2023-01-24T06:52:33;0.40;99.90
7411;DHT22;3747;48.628;9.058;2023-01-24T06:55:00;0.40;99.90
7411;DHT22;3747;48.628;9.058;2023-01-24T06:57:26;0.50;99.90
7411;DHT22;3747;48.628;9.058;2023-01-24T06:59:53;0.50;99.90
7411;DHT22;3747;48.628;9.058;2023-01-24T07:02:20;0.40;99.90
7411;DHT22;3747;48.628;9.058;2023-01-24T07:04:48;0.40;99.90
7411;DHT22;3747;48.628;9.058;2023-01-24T07:07:14;0.40;99.90
7411;DHT22;3747;48.628;9.058;2023-01-24T07:09:41;0.40;99.90
7411;DHT22;3747;48.628;9.058;2023-01-24T07:12:08;0.40;99.90
7411;DHT22;3747;48.628;9.058;2023-01-24T07:14:34;0.40;99.90
7411;DHT22;3747;48.628;9.058;2023-01-24T07:17:01;0.40;99.90
7411;DHT22;3747;48.628;9.058;2023-01-24T07:19:29;0.40;99.90
7411;DHT22;3747;48.628;9.058;2023-01-24T07:21:58;0.40;99.90
7411;DHT22;3747;48.628;9.058;2023-01-24T07:24:27;0.40;99.90
7411;DHT22;3747;48.628;9.058;2023-01-24T07:26:55;0.50;99.90
7411;DHT22;3747;48.628;9.058;2023-01-24T07:29:22;0.50;99.90
7411;DHT22;3747;48.628;9.058;2023-01-24T07:31:49;0.50;99.90
7411;DHT22;3747;48.628;9.058;2023-01-24T07:34:17;0.50;99.90
7411;DHT22;3747;48.628;9.058;2023-01-24T07:36:45;0.50;99.90
7411;DHT22;3747;48.628;9.058;2023-01-24T07:39:13;0.50;99.90
7411;DHT22;3747;48.628;9.058;2023-01-24T07:41:40;0.50;99.90
7411;DHT22;3747;48.628;9.058;2023-01-24T07:44:08;0.60;99.90
7411;DHT22;3747;48.628;9.058;2023-01-24T07:46:35;0.60;99.90
7411;DHT22;3747;48.628;9.058;2023-01-24T07:49:02;0.60;99.90
7411;DHT22;3747;48.628;9.058;2023-01-24T07:51:29;0.60;99.90
7411;DHT22;3747;48.628;9.058;2023-01-24T07:53:56;0.60;99.90
7411;DHT22;3747;48.628;9.058;2023-01-24T07:56:24;0.60;99.90
7411;DHT22;3747;48.628;9.058;2023-01-24T07:58:50;0.60;99.90
7411;DHT22;3747;48.628;9.058;2023-01-24T08:01:18;0.60;99.90
7411;DHT22;3747;48.628;9.058;2023-01-24T08:03:45;0.60;99.90
7411;DHT22;3747;48.628;9.058;2023-01-24T08:06:11;0.70;99.90
7411;DHT22;3747;48.628;9.058;2023-01-24T08:08:38;0.70;99.90
7411;DHT22;3747;48.628;9.058;2023-01-24T08:11:05;0.70;99.90
7411;DHT22;3747;48.628;9.058;2023-01-24T08:13:33;0.70;99.90
7411;DHT22;3747;48.628;9.058;2023-01-24T08:16:00;0.80;99.90
7411;DHT22;3747;48.628;9.058;2023-01-24T08:18:26;0.80;99.90
7411;DHT22;3747;48.628;9.058;2023-01-24T08:20:54;0.80;99.90
7411;DHT22;3747;48.628;9.058;2023-01-24T08:23:21;0.80;99.90
7411;DHT22;3747;48.628;9.058;2023-01-24T08:25:48;0.90;99.90
7411;DHT22;3747;48.628;9.058;2023-01-24T08:28:15;0.90;99.90
7411;DHT22;3747;48.628;9.058;2023-01-24T08:30:43;0.90;99.90
7411;DHT22;3747;48.628;9.058;2023-01-24T08:33:10;1.00;99.90
7411;DHT22;3747;48.628;9.058;2023-01-24T08:35:42;0.90;99.90
7411;DHT22;3747;48.628;9.058;2023-01-24T08:38:09;1.00;99.90
7411;DHT22;3747;48.628;9.058;2023-01-24T08:40:36;1.00;99.90
7411;DHT22;3747;48.628;9.058;2023-01-24T08:43:02;1.00;99.90
7411;DHT22;3747;48.628;9.058;2023-01-24T08:45:29;1.00;99.90
7411;DHT22;3747;48.628;9.058;2023-01-24T08:47:57;1.10;99.90
7411;DHT22;3747;48.628;9.058;2023-01-24T08:50:24;1.10;99.90
7411;DHT22;3747;48.628;9.058;2023-01-24T08:52:54;1.10;99.90
7411;DHT22;3747;48.628;9.058;2023-01-24T08:55:21;1.10;99.90
7411;DHT22;3747;48.628;9.058;2023-01-24T08:57:47;1.10;99.90
7411;DHT22;3747;48.628;9.058;2023-01-24T09:00:15;1.10;99.90
7411;DHT22;3747;48.628;9.058;2023-01-24T09:02:42;1.20;99.90
7411;DHT22;3747;48.628;9.058;2023-01-24T09:05:10;1.10;99.90
7411;DHT22;3747;48.628;9.058;2023-01-24T09:07:36;1.10;99.90
7411;DHT22;3747;48.628;9.058;2023-01-24T09:10:06;1.10;99.90
7411;DHT22;3747;48.628;9.058;2023-01-24T09:12:33;1.20;99.90
7411;DHT22;3747;48.628;9.058;2023-01-24T09:15:00;1.20;99.90
7411;DHT22;3747;48.628;9.058;2023-01-24T09:17:27;1.10;99.90
7411;DHT22;3747;48.628;9.058;2023-01-24T09:19:53;1.10;99.90
7411;DHT22;3747;48.628;9.058;2023-01-24T09:22:21;1.20;99.90
7411;DHT22;3747;48.628;9.058;2023-01-24T09:24:48;1.30;99.90
7411;DHT22;3747;48.628;9.058;2023-01-24T09:27:15;1.30;99.90
7411;DHT22;3747;48.628;9.058;2023-01-24T09:29:41;1.30;99.90
7411;DHT22;3747;48.628;9.058;2023-01-24T09:32:08;1.30;99.90
7411;DHT22;3747;48.628;9.058;2023-01-24T09:34:35;1.40;99.90
7411;DHT22;3747;48.628;9.058;2023-01-24T09:37:01;1.40;99.90
7411;DHT22;3747;48.628;9.058;2023-01-24T09:39:29;1.30;99.90
7411;DHT22;3747;48.628;9.058;2023-01-24T09:42:00;1.40;99.90
7411;DHT22;3747;48.628;9.058;2023-01-24T09:44:36;1.40;99.90
7411;DHT22;3747;48.628;9.058;2023-01-24T09:47:15;1.50;99.90
7411;DHT22;3747;48.628;9.058;2023-01-24T09:49:46;1.40;99.90
7411;DHT22;3747;48.628;9.058;2023-01-24T09:52:25;1.50;99.90
7411;DHT22;3747;48.628;9.058;2023-01-24T09:54:58;1.40;99.90
7411;DHT22;3747;48.628;9.058;2023-01-24T09:57:29;1.50;99.90
7411;DHT22;3747;48.628;9.058;2023-01-24T10:00:02;1.50;99.90
7411;DHT22;3747;48.628;9.058;2023-01-24T10:02:29;1.60;99.90
7411;DHT22;3747;48.628;9.058;2023-01-24T10:04:56;1.50;99.90
7411;DHT22;3747;48.628;9.058;2023-01-24T10:07:47;1.60;99.90
7411;DHT22;3747;48.628;9.058;2023-01-24T10:10:30;1.70;99.90
7411;DHT22;3747;48.628;9.058;2023-01-24T10:13:04;1.70;99.90
7411;DHT22;3747;48.628;9.058;2023-01-24T10:15:42;1.70;99.90
7411;DHT22;3747;48.628;9.058;2023-01-24T10:18:21;1.70;99.90
7411;DHT22;3747;48.628;9.058;2023-01-24T10:21:07;1.70;99.90
7411;DHT22;3747;48.628;9.058;2023-01-24T10:23:38;1.60;99.90
7411;DHT22;3747;48.628;9.058;2023-01-24T10:26:14;1.70;99.90
7411;DHT22;3747;48.628;9.058;2023-01-24T10:28:45;1.70;99.90
7411;DHT22;3747;48.628;9.058;2023-01-24T10:31:14;1.70;99.90
7411;DHT22;3747;48.628;9.058;2023-01-24T10:33:45;1.70;99.90
7411;DHT22;3747;48.628;9.058;2023-01-24T10:36:17;1.70;99.90
7411;DHT22;3747;48.628;9.058;2023-01-24T10:38:45;1.70;99.90
7411;DHT22;3747;48.628;9.058;2023-01-24T10:41:18;1.60;99.90
7411;DHT22;3747;48.628;9.058;2023-01-24T10:43:49;1.60;99.90
7411;DHT22;3747;48.628;9.058;2023-01-24T10:46:29;1.70;99.90
7411;DHT22;3747;48.628;9.058;2023-01-24T10:48:59;1.80;99.90
7411;DHT22;3747;48.628;9.058;2023-01-24T10:51:27;1.80;99.90
7411;DHT22;3747;48.628;9.058;2023-01-24T10:54:00;1.80;99.90
7411;DHT22;3747;48.628;9.058;2023-01-24T10:56:29;2.00;99.90
7411;DHT22;3747;48.628;9.058;2023-01-24T10:58:57;2.00;99.90
7411;DHT22;3747;48.628;9.058;2023-01-24T11:01:32;2.00;99.90
7411;DHT22;3747;48.628;9.058;2023-01-24T11:04:13;2.10;99.90
7411;DHT22;3747;48.628;9.058;2023-01-24T11:06:45;2.10;99.90
7411;DHT22;3747;48.628;9.058;2023-01-24T11:09:14;2.20;99.90
7411;DHT22;3747;48.628;9.058;2023-01-24T11:11:43;2.30;99.90
7411;DHT22;3747;48.628;9.058;2023-01-24T11:14:13;2.20;99.90
7411;DHT22;3747;48.628;9.058;2023-01-24T11:16:43;2.20;99.90
7411;DHT22;3747;48.628;9.058;2023-01-24T11:19:26;2.20;99.90
7411;DHT22;3747;48.628;9.058;2023-01-24T11:21:55;2.20;99.90
7411;DHT22;3747;48.628;9.058;2023-01-24T11:24:22;2.20;99.90
7411;DHT22;3747;48.628;9.058;2023-01-24T11:27:02;2.30;99.90
7411;DHT22;3747;48.628;9.058;2023-01-24T11:29:29;2.20;99.90
7411;DHT22;3747;48.628;9.058;2023-01-24T11:32:04;2.30;99.90
7411;DHT22;3747;48.628;9.058;2023-01-24T11:34:45;2.40;99.90
7411;DHT22;3747;48.628;9.058;2023-01-24T11:37:53;2.40;99.90
7411;DHT22;3747;48.628;9.058;2023-01-24T11:40:30;2.30;99.90
7411;DHT22;3747;48.628;9.058;2023-01-24T11:43:26;2.30;99.90
7411;DHT22;3747;48.628;9.058;2023-01-24T11:46:10;2.20;99.90
7411;DHT22;3747;48.628;9.058;2023-01-24T11:48:47;2.10;99.90
7411;DHT22;3747;48.628;9.058;2023-01-24T11:51:20;2.00;99.90
7411;DHT22;3747;48.628;9.058;2023-01-24T11:54:05;2.00;99.90
7411;DHT22;3747;48.628;9.058;2023-01-24T11:56:45;2.00;99.90
7411;DHT22;3747;48.628;9.058;2023-01-24T11:59:34;2.00;99.90
7411;DHT22;3747;48.628;9.058;2023-01-24T12:02:23;2.10;99.90
7411;DHT22;3747;48.628;9.058;2023-01-24T12:05:15;2.10;99.90
7411;DHT22;3747;48.628;9.058;2023-01-24T12:07:53;2.20;99.90
7411;DHT22;3747;48.628;9.058;2023-01-24T12:10:25;2.10;99.90
7411;DHT22;3747;48.628;9.058;2023-01-24T12:13:02;2.10;99.90
7411;DHT22;3747;48.628;9.058;2023-01-24T12:15:38;2.10;99.90
7411;DHT22;3747;48.628;9.058;2023-01-24T12:18:31;2.10;99.90
7411;DHT22;3747;48.628;9.058;2023-01-24T12:21:05;2.20;99.90
7411;DHT22;3747;48.628;9.058;2023-01-24T12:23:39;2.10;99.90
7411;DHT22;3747;48.628;9.058;2023-01-24T12:26:13;2.10;99.90
7411;DHT22;3747;48.628;9.058;2023-01-24T12:28:47;2.20;99.90
7411;DHT22;3747;48.628;9.058;2023-01-24T12:31:24;2.20;99.90
7411;DHT22;3747;48.628;9.058;2023-01-24T12:33:57;2.20;99.90
7411;DHT22;3747;48.628;9.058;2023-01-24T12:36:32;2.20;99.90
7411;DHT22;3747;48.628;9.058;2023-01-24T12:39:08;2.20;99.90
7411;DHT22;3747;48.628;9.058;2023-01-24T12:41:37;2.30;99.90
7411;DHT22;3747;48.628;9.058;2023-01-24T12:44:14;2.20;99.90
7411;DHT22;3747;48.628;9.058;2023-01-24T12:46:48;2.20;99.90
7411;DHT22;3747;48.628;9.058;2023-01-24T12:49:25;2.20;99.90
7411;DHT22;3747;48.628;9.058;2023-01-24T12:51:56;2.20;99.90
7411;DHT22;3747;48.628;9.058;2023-01-24T12:54:32;2.10;99.90
7411;DHT22;3747;48.628;9.058;2023-01-24T12:57:06;2.10;99.90
7411;DHT22;3747;48.628;9.058;2023-01-24T12:59:38;2.10;99.90
7411;DHT22;3747;48.628;9.058;2023-01-24T13:02:37;2.10;99.90
7411;DHT22;3747;48.628;9.058;2023-01-24T13:05:17;2.10;99.90
7411;DHT22;3747;48.628;9.058;2023-01-24T13:07:54;2.10;99.90
7411;DHT22;3747;48.628;9.058;2023-01-24T13:10:34;2.10;99.90
7411;DHT22;3747;48.628;9.058;2023-01-24T13:13:05;2.10;99.90
7411;DHT22;3747;48.628;9.058;2023-01-24T13:15:39;2.10;99.90
7411;DHT22;3747;48.628;9.058;2023-01-24T13:18:22;2.10;99.90
7411;DHT22;3747;48.628;9.058;2023-01-24T13:21:00;2.10;99.90
7411;DHT22;3747;48.628;9.058;2023-01-24T13:23:42;2.20;99.90
7411;DHT22;3747;48.628;9.058;2023-01-24T13:26:23;2.20;99.90
7411;DHT22;3747;48.628;9.058;2023-01-24T13:29:01;2.10;99.90
7411;DHT22;3747;48.628;9.058;2023-01-24T13:31:36;2.10;99.90
7411;DHT22;3747;48.628;9.058;2023-01-24T13:34:15;2.10;99.90
7411;DHT22;3747;48.628;9.058;2023-01-24T13:36:47;2.10;99.90
7411;DHT22;3747;48.628;9.058;2023-01-24T13:39:29;2.10;99.90
7411;DHT22;3747;48.628;9.058;2023-01-24T13:42:02;2.20;99.90
7411;DHT22;3747;48.628;9.058;2023-01-24T13:44:30;2.20;99.90
7411;DHT22;3747;48.628;9.058;2023-01-24T13:47:23;2.10;99.90
7411;DHT22;3747;48.628;9.058;2023-01-24T13:50:16;2.10;99.90
7411;DHT22;3747;48.628;9.058;2023-01-24T13:52:48;2.10;99.90
7411;DHT22;3747;48.628;9.058;2023-01-24T13:58:26;1.90;99.90
7411;DHT22;3747;48.628;9.058;2023-01-24T14:00:55;2.00;99.90
7411;DHT22;3747;48.628;9.058;2023-01-24T14:03:24;1.90;99.90
7411;DHT22;3747;48.628;9.058;2023-01-24T14:05:56;1.90;99.90
7411;DHT22;3747;48.628;9.058;2023-01-24T14:08:37;1.90;99.90
7411;DHT22;3747;48.628;9.058;2023-01-24T14:11:38;1.80;99.90
7411;DHT22;3747;48.628;9.058;2023-01-24T14:14:30;1.80;99.90
7411;DHT22;3747;48.628;9.058;2023-01-24T14:17:00;1.90;99.90
7411;DHT22;3747;48.628;9.058;2023-01-24T14:19:35;1.70;99.90
7411;DHT22;3747;48.628;9.058;2023-01-24T14:22:17;1.70;99.90
7411;DHT22;3747;48.628;9.058;2023-01-24T14:24:55;1.60;99.90
7411;DHT22;3747;48.628;9.058;2023-01-24T14:27:26;1.60;99.90
7411;DHT22;3747;48.628;9.058;2023-01-24T14:30:00;1.60;99.90
7411;DHT22;3747;48.628;9.058;2023-01-24T14:32:31;1.50;99.90
7411;DHT22;3747;48.628;9.058;2023-01-24T14:35:12;1.50;99.90
7411;DHT22;3747;48.628;9.058;2023-01-24T14:37:42;1.50;99.90
7411;DHT22;3747;48.628;9.058;2023-01-24T14:40:10;1.40;99.90
7411;DHT22;3747;48.628;9.058;2023-01-24T14:42:37;1.40;99.90
7411;DHT22;3747;48.628;9.058;2023-01-24T14:45:12;1.50;99.90
7411;DHT22;3747;48.628;9.058;2023-01-24T14:47:39;1.40;99.90
7411;DHT22;3747;48.628;9.058;2023-01-24T14:50:20;1.40;99.90
7411;DHT22;3747;48.628;9.058;2023-01-24T14:52:49;1.40;99.90
7411;DHT22;3747;48.628;9.058;2023-01-24T14:55:31;1.30;99.90
7411;DHT22;3747;48.628;9.058;2023-01-24T14:58:18;1.40;99.90
7411;DHT22;3747;48.628;9.058;2023-01-24T15:00:46;1.40;99.90
7411;DHT22;3747;48.628;9.058;2023-01-24T15:03:17;1.50;99.90
7411;DHT22;3747;48.628;9.058;2023-01-24T15:05:57;1.40;99.90
7411;DHT22;3747;48.628;9.058;2023-01-24T15:08:26;1.40;99.90
7411;DHT22;3747;48.628;9.058;2023-01-24T15:10:59;1.30;99.90
7411;DHT22;3747;48.628;9.058;2023-01-24T15:13:32;1.30;99.90
7411;DHT22;3747;48.628;9.058;2023-01-24T15:16:00;1.30;99.90
7411;DHT22;3747;48.628;9.058;2023-01-24T15:18:38;1.30;99.90
7411;DHT22;3747;48.628;9.058;2023-01-24T15:21:06;1.20;99.90
7411;DHT22;3747;48.628;9.058;2023-01-24T15:23:40;1.20;99.90
7411;DHT22;3747;48.628;9.058;2023-01-24T15:26:30;1.30;99.90
7411;DHT22;3747;48.628;9.058;2023-01-24T15:28:59;1.30;99.90
7411;DHT22;3747;48.628;9.058;2023-01-24T15:31:48;1.20;99.90
7411;DHT22;3747;48.628;9.058;2023-01-24T15:34:19;1.20;99.90
7411;DHT22;3747;48.628;9.058;2023-01-24T15:36:55;1.20;99.90
7411;DHT22;3747;48.628;9.058;2023-01-24T15:39:24;1.20;99.90
7411;DHT22;3747;48.628;9.058;2023-01-24T15:41:51;1.20;99.90
7411;DHT22;3747;48.628;9.058;2023-01-24T15:44:41;1.20;99.90
7411;DHT22;3747;48.628;9.058;2023-01-24T15:47:18;1.20;99.90
7411;DHT22;3747;48.628;9.058;2023-01-24T15:50:13;1.10;99.90
7411;DHT22;3747;48.628;9.058;2023-01-24T15:53:19;1.10;99.90
7411;DHT22;3747;48.628;9.058;2023-01-24T15:55:48;1.10;99.90
7411;DHT22;3747;48.628;9.058;2023-01-24T15:58:15;1.10;99.90
7411;DHT22;3747;48.628;9.058;2023-01-24T16:00:50;1.10;99.90
7411;DHT22;3747;48.628;9.058;2023-01-24T16:03:17;1.10;99.90
7411;DHT22;3747;48.628;9.058;2023-01-24T16:05:43;1.10;99.90
7411;DHT22;3747;48.628;9.058;2023-01-24T16:08:10;1.10;99.90
7411;DHT22;3747;48.628;9.058;2023-01-24T16:10:37;1.10;99.90
7411;DHT22;3747;48.628;9.058;2023-01-24T16:13:05;1.10;99.90
7411;DHT22;3747;48.628;9.058;2023-01-24T16:15:32;1.00;99.90
7411;DHT22;3747;48.628;9.058;2023-01-24T16:17:58;1.00;99.90
7411;DHT22;3747;48.628;9.058;2023-01-24T16:20:27;1.10;99.90
7411;DHT22;3747;48.628;9.058;2023-01-24T16:22:54;1.10;99.90
7411;DHT22;3747;48.628;9.058;2023-01-24T16:25:21;1.00;99.90
7411;DHT22;3747;48.628;9.058;2023-01-24T16:27:49;1.00;99.90
7411;DHT22;3747;48.628;9.058;2023-01-24T16:30:21;1.00;99.90
7411;DHT22;3747;48.628;9.058;2023-01-24T16:32:48;1.00;99.90
7411;DHT22;3747;48.628;9.058;2023-01-24T16:35:16;1.00;99.90
7411;DHT22;3747;48.628;9.058;2023-01-24T16:37:43;1.00;99.90
7411;DHT22;3747;48.628;9.058;2023-01-24T16:40:11;1.00;99.90
7411;DHT22;3747;48.628;9.058;2023-01-24T16:42:40;1.00;99.90
7411;DHT22;3747;48.628;9.058;2023-01-24T16:45:11;1.00;99.90
7411;DHT22;3747;48.628;9.058;2023-01-24T16:47:40;1.00;99.90